Time;durP1;ratioP1;P1;durP2;ratioP2;P2;SDS_P1;SDS_P2;PMS_P1;PMS_P2;Temp;Humidity;BMP_temperature;BMP_pressure;BME280_temperature;BME280_humidity;BME280_pressure;Samples;Min_cycle;Max_cycle;Signal;HPM_P1;HPM_P2
2023/07/16 00:02:24;;;;;;;179.85;170.77;;;;;;;;;;5020626;28;20032;-68
2023/07/16 00:04:49;;;;;;;180.60;171.40;;;;;;;;;;5017349;28;20356;-68
2023/07/16 00:07:14;;;;;;;170.73;162.10;;;;;;;;;;5018733;28;20603;-69
2023/07/16 00:09:40;;;;;;;165.85;157.43;;;;;;;;;;5016666;28;20352;-68
2023/07/16 00:12:05;;;;;;;148.05;140.55;;;;;;;;;;5017855;28;20484;-68
2023/07/16 00:14:31;;;;;;;139.13;132.02;;;;;;;;;;5020045;28;20206;-68
2023/07/16 00:16:57;;;;;;;137.32;130.23;;;;;;;;;;5017584;28;20116;-68
2023/07/16 00:19:22;;;;;;;132.85;126.00;;;;;;;;;;5019552;28;20033;-69
2023/07/16 00:21:48;;;;;;;135.55;128.60;;;;;;;;;;5016549;28;20033;-69
2023/07/16 00:24:13;;;;;;;129.60;122.97;;;;;;;;;;5017967;28;20069;-69
2023/07/16 00:26:38;;;;;;;127.53;119.80;;;;;;;;;;5019364;28;20034;-69
2023/07/16 00:29:04;;;;;;;124.10;117.63;;;;;;;;;;5016716;28;20092;-69
2023/07/16 00:31:30;;;;;;;129.40;122.60;;;;;;;;;;5017937;28;20030;-71
2023/07/16 00:33:55;;;;;;;125.88;119.25;;;;;;;;;;5018392;28;20034;-70
2023/07/16 00:36:20;;;;;;;119.63;113.38;;;;;;;;;;5020002;28;20546;-71
2023/07/16 00:38:46;;;;;;;123.93;117.43;;;;;;;;;;5018414;28;20232;-70
2023/07/16 00:41:13;;;;;;;128.52;121.90;;;;;;;;;;5018562;28;20372;-72
2023/07/16 00:43:38;;;;;;;126.38;119.85;;;;;;;;;;5016664;28;20475;-69
2023/07/16 00:46:04;;;;;;;137.35;130.23;;;;;;;;;;5019610;28;20052;-70
2023/07/16 00:48:29;;;;;;;151.35;143.43;;;;;;;;;;5018351;28;20045;-69
2023/07/16 00:50:55;;;;;;;138.80;131.63;;;;;;;;;;5018299;28;20030;-69
2023/07/16 00:53:21;;;;;;;140.07;132.88;;;;;;;;;;5019688;28;20026;-70
2023/07/16 00:55:46;;;;;;;135.25;128.23;;;;;;;;;;5020150;28;20549;-70
2023/07/16 00:58:12;;;;;;;134.65;127.65;;;;;;;;;;5015997;28;20036;-70
2023/07/16 01:00:39;;;;;;;140.90;133.65;;;;;;;;;;5017154;28;20559;-70
2023/07/16 01:03:13;;;;;;;125.28;118.82;;;;;;;;;;5019558;28;20052;-71
2023/07/16 01:05:53;;;;;;;123.00;116.65;;;;;;;;;;5017519;28;20424;-70
2023/07/16 01:08:21;;;;;;;;;;;;;;;;;;5019081;28;20043;-70
2023/07/16 01:10:49;;;;;;;114.22;108.43;;;;;;;;;;5018762;28;19917;-68
2023/07/16 01:13:15;;;;;;;123.70;117.38;;;;;;;;;;5018170;28;20039;-68
2023/07/16 01:15:40;;;;;;;119.78;113.65;;;;;;;;;;5018028;28;20497;-68
2023/07/16 01:18:05;;;;;;;107.82;102.28;;;;;;;;;;5014722;28;20034;-68
2023/07/16 01:20:31;;;;;;;108.18;102.70;;;;;;;;;;5018668;28;20445;-71
2023/07/16 01:23:25;;;;;;;109.40;103.88;;;;;;;;;;5014013;28;20038;-68
2023/07/16 01:26:06;;;;;;;99.75;94.72;;;;;;;;;;5014970;28;20114;-68
2023/07/16 01:28:38;;;;;;;95.82;90.85;;;;;;;;;;5015953;28;20147;-72
2023/07/16 01:31:04;;;;;;;99.78;94.70;;;;;;;;;;5015314;28;20034;-73
2023/07/16 01:33:29;;;;;;;100.53;95.40;;;;;;;;;;5016133;28;20038;-75
2023/07/16 01:35:56;;;;;;;100.00;94.95;;;;;;;;;;5018712;28;20025;-73
2023/07/16 01:38:23;;;;;;;94.72;89.93;;;;;;;;;;5015927;28;20037;-74
2023/07/16 01:40:48;;;;;;;102.65;97.43;;;;;;;;;;5015198;28;20092;-68
2023/07/16 01:43:14;;;;;;;100.25;95.10;;;;;;;;;;5015642;28;20066;-69
2023/07/16 01:45:39;;;;;;;102.70;97.50;;;;;;;;;;5013691;28;20034;-70
2023/07/16 01:48:26;;;;;;;124.53;118.18;;;;;;;;;;5014445;28;20492;-69
2023/07/16 01:50:51;;;;;;;117.60;111.68;;;;;;;;;;5017465;28;20072;-69
2023/07/16 01:53:16;;;;;;;114.35;108.53;;;;;;;;;;5016404;28;20060;-73
2023/07/16 01:55:42;;;;;;;120.15;114.05;;;;;;;;;;5014908;28;20064;-74
2023/07/16 01:58:08;;;;;;;111.32;105.68;;;;;;;;;;5012738;28;20045;-74
2023/07/16 02:00:33;;;;;;;100.30;95.22;;;;;;;;;;5017081;28;20040;-73
2023/07/16 02:02:58;;;;;;;105.95;100.55;;;;;;;;;;5015970;28;20034;-74
2023/07/16 02:05:25;;;;;;;98.35;93.35;;;;;;;;;;5021641;28;20053;-68
2023/07/16 02:07:50;;;;;;;111.28;105.65;;;;;;;;;;5014378;28;20029;-73
2023/07/16 02:10:16;;;;;;;97.93;92.97;;;;;;;;;;5015593;28;20112;-68
2023/07/16 02:12:41;;;;;;;109.93;104.40;;;;;;;;;;5018151;28;20462;-68
2023/07/16 02:15:07;;;;;;;110.95;105.40;;;;;;;;;;5016823;28;20113;-69
2023/07/16 02:17:32;;;;;;;107.70;102.28;;;;;;;;;;5016896;28;20034;-68
2023/07/16 02:19:57;;;;;;;94.90;90.10;;;;;;;;;;5016058;28;20093;-67
2023/07/16 02:22:22;;;;;;;109.03;103.55;;;;;;;;;;5016803;28;20041;-68
2023/07/16 02:24:48;;;;;;;98.47;93.50;;;;;;;;;;5015190;28;20124;-68
2023/07/16 02:27:13;;;;;;;103.45;98.18;;;;;;;;;;5016185;28;20034;-68
2023/07/16 02:29:38;;;;;;;114.75;108.90;;;;;;;;;;5015660;28;20056;-68
2023/07/16 02:32:04;;;;;;;105.65;100.32;;;;;;;;;;5017612;28;20040;-68
2023/07/16 02:34:29;;;;;;;101.82;96.68;;;;;;;;;;5016282;28;20038;-67
2023/07/16 02:36:55;;;;;;;102.72;97.53;;;;;;;;;;5017135;28;20041;-68
2023/07/16 02:39:20;;;;;;;95.78;90.93;;;;;;;;;;5015857;28;20095;-68
2023/07/16 02:41:45;;;;;;;107.28;101.88;;;;;;;;;;5017176;28;20095;-68
2023/07/16 02:44:11;;;;;;;104.95;99.43;;;;;;;;;;5012165;28;20076;-68
2023/07/16 02:46:36;;;;;;;108.57;103.10;;;;;;;;;;5016575;28;20038;-69
2023/07/16 02:49:03;;;;;;;112.88;107.18;;;;;;;;;;5016403;28;20033;-73
2023/07/16 02:51:28;;;;;;;112.45;105.28;;;;;;;;;;5016927;28;20565;-73
2023/07/16 02:53:53;;;;;;;103.88;98.30;;;;;;;;;;5019953;28;20055;-73
2023/07/16 02:56:19;;;;;;;102.75;97.53;;;;;;;;;;5017507;28;20048;-73
2023/07/16 02:58:44;;;;;;;107.72;102.35;;;;;;;;;;5019222;28;20041;-68
2023/07/16 03:01:09;;;;;;;96.93;91.97;;;;;;;;;;5019336;28;20121;-68
2023/07/16 03:03:35;;;;;;;102.90;97.63;;;;;;;;;;5022094;28;20033;-68
2023/07/16 03:06:00;;;;;;;93.55;88.88;;;;;;;;;;5021033;28;20088;-68
2023/07/16 03:08:29;;;;;;;89.88;85.38;;;;;;;;;;5019832;28;20038;-74
2023/07/16 03:10:56;;;;;;;80.05;76.00;;;;;;;;;;5023204;28;20632;-74
2023/07/16 03:13:21;;;;;;;85.85;81.55;;;;;;;;;;5018491;28;20041;-69
2023/07/16 03:15:47;;;;;;;93.70;88.93;;;;;;;;;;5020775;28;20029;-68
2023/07/16 03:18:12;;;;;;;85.47;81.18;;;;;;;;;;5017427;28;20035;-68
2023/07/16 03:20:37;;;;;;;82.05;77.97;;;;;;;;;;5020829;28;20474;-67
2023/07/16 03:23:03;;;;;;;86.95;82.55;;;;;;;;;;5018141;28;20352;-68
2023/07/16 03:25:28;;;;;;;92.40;87.78;;;;;;;;;;5016940;28;20071;-68
2023/07/16 03:27:53;;;;;;;82.35;77.82;;;;;;;;;;5018086;28;20136;-74
2023/07/16 03:30:19;;;;;;;83.30;78.43;;;;;;;;;;5021446;28;20080;-73
2023/07/16 03:32:44;;;;;;;88.47;84.07;;;;;;;;;;5018887;28;20432;-74
2023/07/16 03:35:09;;;;;;;99.18;94.15;;;;;;;;;;5019633;28;20510;-73
2023/07/16 03:37:35;;;;;;;98.45;93.57;;;;;;;;;;5019303;28;20473;-73
2023/07/16 03:40:14;;;;;;;72.40;68.80;;;;;;;;;;5017500;28;20029;-73
2023/07/16 03:42:40;;;;;;;85.00;80.75;;;;;;;;;;5017713;28;20486;-73
2023/07/16 03:45:06;;;;;;;85.05;80.70;;;;;;;;;;5017344;28;20041;-73
2023/07/16 03:47:32;;;;;;;75.97;72.15;;;;;;;;;;5027570;28;20660;-68
2023/07/16 03:49:57;;;;;;;78.68;74.75;;;;;;;;;;5020445;28;20040;-68
2023/07/16 03:52:24;;;;;;;74.35;70.60;;;;;;;;;;5016101;28;20092;-74
2023/07/16 03:54:49;;;;;;;77.60;73.75;;;;;;;;;;5018708;28;20022;-73
2023/07/16 03:57:15;;;;;;;73.60;69.95;;;;;;;;;;5016820;28;20522;-73
2023/07/16 03:59:40;;;;;;;69.53;66.07;;;;;;;;;;5019538;28;20045;-67
2023/07/16 04:02:05;;;;;;;65.03;61.67;;;;;;;;;;5018105;28;20029;-68
2023/07/16 04:04:31;;;;;;;70.18;66.65;;;;;;;;;;5017305;28;20045;-73
2023/07/16 04:06:56;;;;;;;65.30;62.00;;;;;;;;;;5017446;28;20064;-68
2023/07/16 04:09:22;;;;;;;65.28;62.00;;;;;;;;;;5019484;28;20029;-68
2023/07/16 04:11:47;;;;;;;63.75;60.55;;;;;;;;;;5020829;28;20044;-68
2023/07/16 04:14:13;;;;;;;62.75;59.53;;;;;;;;;;5016794;28;20030;-68
2023/07/16 04:16:38;;;;;;;71.32;67.75;;;;;;;;;;5025075;28;20490;-68
2023/07/16 04:19:04;;;;;;;58.80;55.85;;;;;;;;;;5018656;28;20471;-71
2023/07/16 04:21:30;;;;;;;68.22;64.82;;;;;;;;;;5017874;28;20036;-70
2023/07/16 04:23:55;;;;;;;67.63;64.28;;;;;;;;;;5018921;28;20042;-68
2023/07/16 04:26:21;;;;;;;65.57;62.22;;;;;;;;;;5021300;28;20125;-69
2023/07/16 04:28:46;;;;;;;65.50;62.20;;;;;;;;;;5018906;28;20056;-69
2023/07/16 04:31:11;;;;;;;57.22;54.33;;;;;;;;;;5019664;28;20033;-69
2023/07/16 04:33:37;;;;;;;52.30;49.65;;;;;;;;;;5019802;28;20032;-71
2023/07/16 04:36:02;;;;;;;53.78;51.03;;;;;;;;;;5019949;28;20022;-71
2023/07/16 04:38:28;;;;;;;56.42;53.58;;;;;;;;;;5018708;28;20057;-72
2023/07/16 04:40:53;;;;;;;46.42;44.05;;;;;;;;;;5017501;28;20156;-71
2023/07/16 04:43:18;;;;;;;48.65;46.15;;;;;;;;;;5016888;28;20113;-71
2023/07/16 04:45:46;;;;;;;51.13;48.53;;;;;;;;;;5018232;28;20053;-68
2023/07/16 04:48:12;;;;;;;44.47;41.75;;;;;;;;;;5019022;28;20136;-71
2023/07/16 04:50:38;;;;;;;40.13;38.08;;;;;;;;;;5020093;28;20128;-69
2023/07/16 04:53:04;;;;;;;40.17;38.08;;;;;;;;;;5018498;28;20482;-68
2023/07/16 04:55:34;;;;;;;35.90;34.03;;;;;;;;;;5017677;28;20041;-66
2023/07/16 04:57:59;;;;;;;35.33;33.53;;;;;;;;;;5017889;28;20040;-67
2023/07/16 05:00:25;;;;;;;40.22;38.13;;;;;;;;;;5016936;28;20038;-67
2023/07/16 05:02:50;;;;;;;33.70;31.95;;;;;;;;;;5018552;28;20063;-66
2023/07/16 05:05:15;;;;;;;37.72;35.78;;;;;;;;;;5023659;28;20033;-67
2023/07/16 05:07:41;;;;;;;31.67;30.02;;;;;;;;;;5018472;28;20068;-67
2023/07/16 05:10:07;;;;;;;31.10;29.48;;;;;;;;;;5018764;28;20053;-67
2023/07/16 05:12:32;;;;;;;31.95;30.27;;;;;;;;;;5016966;28;20052;-67
2023/07/16 05:14:57;;;;;;;32.28;30.58;;;;;;;;;;5016775;28;20065;-66
2023/07/16 05:17:23;;;;;;;31.08;29.40;;;;;;;;;;5017579;28;20121;-67
2023/07/16 05:19:48;;;;;;;33.13;31.33;;;;;;;;;;5019669;28;20037;-67
2023/07/16 05:22:13;;;;;;;27.42;25.98;;;;;;;;;;5016069;28;20091;-67
2023/07/16 05:24:39;;;;;;;26.55;25.13;;;;;;;;;;5014608;28;20076;-67
2023/07/16 05:27:04;;;;;;;26.38;24.98;;;;;;;;;;5017542;28;20103;-66
2023/07/16 05:29:30;;;;;;;24.67;23.38;;;;;;;;;;5018929;28;20036;-65
2023/07/16 05:31:55;;;;;;;22.80;21.60;;;;;;;;;;5018307;28;20032;-67
2023/07/16 05:34:20;;;;;;;22.85;21.52;;;;;;;;;;5019032;28;20025;-67
2023/07/16 05:36:46;;;;;;;22.55;21.33;;;;;;;;;;5015366;28;20032;-66
2023/07/16 05:39:14;;;;;;;21.17;19.98;;;;;;;;;;5015113;28;20072;-66
2023/07/16 05:41:41;;;;;;;22.23;21.02;;;;;;;;;;5016671;28;20026;-67
2023/07/16 05:44:06;;;;;;;22.27;21.05;;;;;;;;;;5015886;28;20128;-66
2023/07/16 05:46:33;;;;;;;24.42;23.13;;;;;;;;;;5015532;28;20120;-67
2023/07/16 05:48:58;;;;;;;27.25;25.83;;;;;;;;;;5015956;28;20029;-66
2023/07/16 05:51:23;;;;;;;26.55;25.15;;;;;;;;;;5016832;28;20029;-65
2023/07/16 05:53:49;;;;;;;28.55;27.08;;;;;;;;;;5014175;28;20088;-66
2023/07/16 05:56:14;;;;;;;30.80;29.08;;;;;;;;;;5012611;28;20086;-66
2023/07/16 05:58:42;;;;;;;32.53;30.85;;;;;;;;;;5016334;28;20029;-66
2023/07/16 06:01:08;;;;;;;39.30;37.22;;;;;;;;;;5013677;28;20080;-66
2023/07/16 06:03:33;;;;;;;44.33;41.90;;;;;;;;;;5020764;28;20046;-66
2023/07/16 06:05:59;;;;;;;45.47;43.13;;;;;;;;;;5015089;28;20030;-67
2023/07/16 06:08:24;;;;;;;36.00;34.17;;;;;;;;;;5015287;28;20368;-67
2023/07/16 06:10:50;;;;;;;45.78;43.45;;;;;;;;;;5018081;28;20586;-67
2023/07/16 06:13:16;;;;;;;43.97;41.72;;;;;;;;;;5016823;28;20058;-68
2023/07/16 06:15:42;;;;;;;48.65;46.17;;;;;;;;;;5014093;28;20450;-67
2023/07/16 06:18:07;;;;;;;57.60;54.35;;;;;;;;;;5016049;28;20038;-67
2023/07/16 06:20:32;;;;;;;50.15;47.63;;;;;;;;;;5016101;28;20033;-68
2023/07/16 06:22:58;;;;;;;52.63;49.97;;;;;;;;;;5014903;28;20375;-67
2023/07/16 06:25:23;;;;;;;54.30;51.55;;;;;;;;;;5015591;28;20147;-67
2023/07/16 06:27:48;;;;;;;64.13;60.92;;;;;;;;;;5015128;28;20034;-67
2023/07/16 06:30:14;;;;;;;69.05;65.63;;;;;;;;;;5018127;28;20049;-67
2023/07/16 06:32:39;;;;;;;78.28;74.40;;;;;;;;;;5021721;28;20041;-68
2023/07/16 06:35:05;;;;;;;60.10;56.97;;;;;;;;;;5020030;28;20045;-70
2023/07/16 06:37:30;;;;;;;50.08;47.15;;;;;;;;;;5019174;28;20048;-70
2023/07/16 06:39:56;;;;;;;48.72;46.22;;;;;;;;;;5019730;28;20375;-68
2023/07/16 06:42:21;;;;;;;50.95;48.35;;;;;;;;;;5020620;28;20131;-69
2023/07/16 06:44:46;;;;;;;60.92;57.88;;;;;;;;;;5022432;28;20034;-69
2023/07/16 06:47:12;;;;;;;45.05;42.75;;;;;;;;;;5022550;28;20049;-69
2023/07/16 06:49:37;;;;;;;40.20;38.15;;;;;;;;;;5019446;28;20022;-68
2023/07/16 06:52:03;;;;;;;46.75;44.40;;;;;;;;;;5020447;28;20171;-68
2023/07/16 06:54:28;;;;;;;45.08;42.78;;;;;;;;;;5020961;28;20057;-68
2023/07/16 06:56:54;;;;;;;45.33;42.92;;;;;;;;;;5018693;28;20423;-68
2023/07/16 06:59:19;;;;;;;42.17;39.97;;;;;;;;;;5019083;28;20044;-68
2023/07/16 07:01:44;;;;;;;32.38;30.67;;;;;;;;;;5019796;28;20037;-70
2023/07/16 07:04:10;;;;;;;29.52;27.98;;;;;;;;;;5017381;28;20030;-69
2023/07/16 07:06:35;;;;;;;34.42;32.60;;;;;;;;;;5016178;28;20029;-70
2023/07/16 07:09:00;;;;;;;28.95;27.45;;;;;;;;;;5020672;28;20046;-70
2023/07/16 07:11:26;;;;;;;29.15;27.55;;;;;;;;;;5021279;28;20040;-70
2023/07/16 07:13:52;;;;;;;29.50;27.90;;;;;;;;;;5018595;28;20037;-70
2023/07/16 07:16:17;;;;;;;26.35;24.95;;;;;;;;;;5021677;28;20041;-69
2023/07/16 07:18:43;;;;;;;26.90;25.48;;;;;;;;;;5020960;28;20021;-69
2023/07/16 07:21:08;;;;;;;26.02;24.63;;;;;;;;;;5018486;28;20456;-69
2023/07/16 07:23:34;;;;;;;23.33;22.02;;;;;;;;;;5017768;28;20030;-69
2023/07/16 07:25:59;;;;;;;27.73;26.27;;;;;;;;;;5019136;28;20056;-69
2023/07/16 07:28:25;;;;;;;25.30;23.90;;;;;;;;;;5017522;28;20045;-69
2023/07/16 07:30:50;;;;;;;26.10;24.73;;;;;;;;;;5015718;28;20034;-68
2023/07/16 07:33:16;;;;;;;28.98;27.13;;;;;;;;;;5020369;28;20044;-68
2023/07/16 07:35:41;;;;;;;25.50;24.10;;;;;;;;;;5020252;28;20424;-71
2023/07/16 07:38:06;;;;;;;28.38;26.88;;;;;;;;;;5019554;28;20435;-72
2023/07/16 07:40:32;;;;;;;27.92;26.42;;;;;;;;;;5020218;28;20037;-72
2023/07/16 07:42:57;;;;;;;24.52;23.23;;;;;;;;;;5018339;28;20045;-72
2023/07/16 07:45:24;;;;;;;21.27;19.95;;;;;;;;;;5019226;28;20064;-68
2023/07/16 07:47:49;;;;;;;22.83;21.63;;;;;;;;;;5019350;28;20258;-68
2023/07/16 07:50:14;;;;;;;24.33;23.02;;;;;;;;;;5018003;28;20041;-67
2023/07/16 07:52:40;;;;;;;26.40;25.00;;;;;;;;;;5017620;28;20046;-68
2023/07/16 07:55:05;;;;;;;27.50;25.98;;;;;;;;;;5017041;28;20037;-69
2023/07/16 07:57:31;;;;;;;28.00;26.52;;;;;;;;;;5018916;28;20387;-73
2023/07/16 07:59:57;;;;;;;24.88;23.52;;;;;;;;;;5016826;28;20038;-69
2023/07/16 08:02:24;;;;;;;27.95;26.48;;;;;;;;;;5018515;28;20109;-73
2023/07/16 08:04:51;;;;;;;31.45;29.85;;;;;;;;;;5026262;28;20455;-71
2023/07/16 08:07:17;;;;;;;24.50;23.20;;;;;;;;;;5017068;28;20051;-72
2023/07/16 08:09:42;;;;;;;23.00;21.73;;;;;;;;;;5017222;28;20042;-72
2023/07/16 08:12:08;;;;;;;24.85;23.45;;;;;;;;;;5019770;28;20542;-70
2023/07/16 08:14:33;;;;;;;26.80;25.40;;;;;;;;;;5018049;28;20042;-69
2023/07/16 08:16:59;;;;;;;62.35;59.25;;;;;;;;;;5018256;28;20361;-71
2023/07/16 08:19:24;;;;;;;81.75;77.70;;;;;;;;;;5014617;28;20041;-72
2023/07/16 08:21:49;;;;;;;74.95;71.22;;;;;;;;;;5019510;28;20110;-70
2023/07/16 08:24:15;;;;;;;85.28;81.00;;;;;;;;;;5014881;28;20088;-71
2023/07/16 08:26:40;;;;;;;90.68;86.18;;;;;;;;;;5020765;28;20040;-73
2023/07/16 08:29:05;;;;;;;78.65;74.72;;;;;;;;;;5017003;28;20100;-70
2023/07/16 08:31:31;;;;;;;87.63;83.25;;;;;;;;;;5007360;28;20040;-71
2023/07/16 08:33:56;;;;;;;91.35;86.82;;;;;;;;;;5019009;28;20045;-70
2023/07/16 08:36:22;;;;;;;83.63;79.47;;;;;;;;;;5017745;28;20025;-70
2023/07/16 08:38:47;;;;;;;41.78;39.63;;;;;;;;;;5019836;28;20056;-72
2023/07/16 08:41:13;;;;;;;90.25;85.80;;;;;;;;;;5019329;28;20044;-71
2023/07/16 08:43:39;;;;;;;89.35;84.72;;;;;;;;;;5018004;28;20029;-70
2023/07/16 08:46:05;;;;;;;99.32;94.43;;;;;;;;;;5019657;28;20382;-70
2023/07/16 08:48:31;;;;;;;100.15;95.20;;;;;;;;;;5017766;28;20037;-71
2023/07/16 08:50:58;;;;;;;95.63;90.82;;;;;;;;;;5020573;28;20033;-69
2023/07/16 08:53:24;;;;;;;98.95;93.65;;;;;;;;;;5016387;28;20037;-69
2023/07/16 08:55:49;;;;;;;96.07;91.22;;;;;;;;;;5018408;28;20026;-70
2023/07/16 08:58:15;;;;;;;86.63;82.20;;;;;;;;;;5018371;28;20592;-69
2023/07/16 09:00:44;;;;;;;82.47;78.35;;;;;;;;;;5016633;28;20251;-69
2023/07/16 09:03:13;;;;;;;100.10;95.05;;;;;;;;;;5016090;28;20099;-70
2023/07/16 09:05:38;;;;;;;109.40;104.03;;;;;;;;;;5021642;28;20046;-70
2023/07/16 09:08:04;;;;;;;81.60;77.55;;;;;;;;;;5021166;28;20048;-72
2023/07/16 09:10:29;;;;;;;69.57;65.90;;;;;;;;;;5018741;28;20029;-69
2023/07/16 09:12:58;;;;;;;72.00;68.40;;;;;;;;;;5018319;28;20029;-70
2023/07/16 09:15:23;;;;;;;64.28;61.03;;;;;;;;;;5017065;28;20033;-70
2023/07/16 09:17:49;;;;;;;68.53;65.13;;;;;;;;;;5020754;28;20037;-70
2023/07/16 09:20:16;;;;;;;82.97;78.70;;;;;;;;;;5015735;28;20435;-71
2023/07/16 09:22:42;;;;;;;75.93;72.15;;;;;;;;;;5017794;28;20036;-69
2023/07/16 09:25:08;;;;;;;86.25;81.97;;;;;;;;;;5018321;28;20492;-69
2023/07/16 09:27:33;;;;;;;79.53;75.57;;;;;;;;;;5014451;28;20029;-70
2023/07/16 09:30:02;;;;;;;77.65;73.78;;;;;;;;;;5017238;28;20087;-71
2023/07/16 09:32:39;;;;;;;79.47;75.55;;;;;;;;;;5016542;28;20045;-67
2023/07/16 09:35:15;;;;;;;79.95;75.97;;;;;;;;;;5018903;28;20038;-72
2023/07/16 09:37:43;;;;;;;82.28;78.20;;;;;;;;;;5016964;28;20025;-71
2023/07/16 09:40:10;;;;;;;79.43;75.45;;;;;;;;;;5017026;28;20044;-72
2023/07/16 09:42:37;;;;;;;93.47;88.82;;;;;;;;;;5016220;28;20472;-71
2023/07/16 09:45:05;;;;;;;87.95;83.60;;;;;;;;;;5015798;28;20092;-70
2023/07/16 09:47:30;;;;;;;82.60;78.50;;;;;;;;;;5018600;28;20026;-68
2023/07/16 09:49:55;;;;;;;94.53;89.85;;;;;;;;;;5018299;28;20029;-70
2023/07/16 09:52:21;;;;;;;85.28;81.00;;;;;;;;;;5017442;28;20034;-73
2023/07/16 09:54:46;;;;;;;91.68;87.03;;;;;;;;;;5017917;28;20037;-72
2023/07/16 09:57:14;;;;;;;90.18;85.68;;;;;;;;;;5005732;28;20069;-70
2023/07/16 09:59:40;;;;;;;87.53;83.20;;;;;;;;;;5017469;28;20029;-71
2023/07/16 10:02:07;;;;;;;85.47;81.25;;;;;;;;;;5017328;28;20584;-73
2023/07/16 10:04:39;;;;;;;74.75;71.03;;;;;;;;;;5017670;28;20044;-70
2023/07/16 10:07:05;;;;;;;87.68;83.35;;;;;;;;;;5015091;28;20172;-70
2023/07/16 10:09:33;;;;;;;73.50;69.78;;;;;;;;;;5018611;28;20120;-70
2023/07/16 10:12:13;;;;;;;62.83;59.70;;;;;;;;;;5015923;28;20460;-73
2023/07/16 10:14:46;;;;;;;64.25;61.08;;;;;;;;;;5018757;28;20037;-72
2023/07/16 10:17:23;;;;;;;58.22;55.28;;;;;;;;;;5015233;28;20049;-72
2023/07/16 10:19:58;;;;;;;53.92;51.20;;;;;;;;;;5016666;28;20034;-70
2023/07/16 10:22:39;;;;;;;59.83;56.78;;;;;;;;;;5016513;28;20037;-70
2023/07/16 10:25:10;;;;;;;57.97;55.05;;;;;;;;;;5018367;28;20033;-68
2023/07/16 10:27:36;;;;;;;55.03;52.28;;;;;;;;;;5017999;28;20098;-69
2023/07/16 10:30:04;;;;;;;60.28;57.25;;;;;;;;;;5015317;28;20065;-68
2023/07/16 10:32:32;;;;;;;95.40;90.65;;;;;;;;;;5021947;28;20135;-70
2023/07/16 10:34:58;;;;;;;94.47;89.82;;;;;;;;;;5015991;28;20065;-68
2023/07/16 10:37:24;;;;;;;84.07;79.88;;;;;;;;;;5017244;28;20460;-69
2023/07/16 10:39:54;;;;;;;63.13;59.92;;;;;;;;;;5014390;28;20030;-68
2023/07/16 10:42:21;;;;;;;103.80;98.50;;;;;;;;;;5014300;28;20029;-69
2023/07/16 10:44:51;;;;;;;109.35;103.97;;;;;;;;;;5016337;28;20104;-69
2023/07/16 10:47:25;;;;;;;173.90;165.38;;;;;;;;;;5015947;28;20061;-66
2023/07/16 10:49:54;;;;;;;178.07;169.32;;;;;;;;;;5015346;28;20103;-66
2023/07/16 10:52:21;;;;;;;164.70;156.45;;;;;;;;;;5015859;28;20057;-66
2023/07/16 10:54:47;;;;;;;157.82;150.00;;;;;;;;;;5016359;28;20079;-68
2023/07/16 10:57:12;;;;;;;163.00;154.98;;;;;;;;;;5014907;28;20038;-68
2023/07/16 10:59:40;;;;;;;162.30;154.32;;;;;;;;;;5020682;28;20037;-68
2023/07/16 11:02:10;;;;;;;157.80;150.05;;;;;;;;;;5016746;28;20580;-68
2023/07/16 11:04:35;;;;;;;160.23;152.35;;;;;;;;;;5018112;28;20049;-68
2023/07/16 11:07:12;;;;;;;149.38;142.05;;;;;;;;;;5019165;28;20033;-70
2023/07/16 11:09:49;;;;;;;143.18;135.63;;;;;;;;;;5017618;28;20061;-68
2023/07/16 11:12:17;;;;;;;138.23;131.40;;;;;;;;;;5031293;28;20395;-69
2023/07/16 11:14:45;;;;;;;126.95;120.70;;;;;;;;;;5015048;28;20033;-71
2023/07/16 11:17:10;;;;;;;129.68;123.30;;;;;;;;;;5023234;28;20597;-70
2023/07/16 11:19:37;;;;;;;144.88;137.70;;;;;;;;;;5020873;28;20117;-71
2023/07/16 11:22:04;;;;;;;96.75;91.95;;;;;;;;;;5021987;28;20029;-70
2023/07/16 11:24:40;;;;;;;107.75;102.47;;;;;;;;;;5018336;28;20037;-71
2023/07/16 11:27:13;;;;;;;74.55;70.85;;;;;;;;;;5020277;28;20099;-71
2023/07/16 11:29:39;;;;;;;124.13;118.00;;;;;;;;;;5021046;28;20021;-70
2023/07/16 11:32:05;;;;;;;120.82;114.88;;;;;;;;;;5022001;28;20084;-72
2023/07/16 11:34:30;;;;;;;144.27;136.77;;;;;;;;;;5020496;28;20517;-70
2023/07/16 11:37:08;;;;;;;148.10;140.77;;;;;;;;;;5017538;28;20029;-69
2023/07/16 11:39:34;;;;;;;165.20;157.07;;;;;;;;;;5017598;28;23550;-69
2023/07/16 11:42:02;;;;;;;164.23;156.10;;;;;;;;;;5019102;28;20529;-70
2023/07/16 11:44:32;;;;;;;149.73;142.32;;;;;;;;;;5019540;28;20044;-70
2023/07/16 11:46:59;;;;;;;145.25;137.80;;;;;;;;;;5018380;28;20037;-72
2023/07/16 11:49:25;;;;;;;146.95;139.43;;;;;;;;;;5019246;28;20087;-71
2023/07/16 11:51:50;;;;;;;148.75;141.40;;;;;;;;;;5021406;28;20033;-72
2023/07/16 11:54:15;;;;;;;152.57;145.02;;;;;;;;;;5017930;28;20388;-71
2023/07/16 11:56:41;;;;;;;145.27;138.15;;;;;;;;;;5018059;28;20533;-72
2023/07/16 11:59:06;;;;;;;147.35;139.95;;;;;;;;;;5021208;28;20026;-72
2023/07/16 12:01:31;;;;;;;152.85;145.30;;;;;;;;;;5019030;28;20176;-71
2023/07/16 12:03:57;;;;;;;105.93;100.72;;;;;;;;;;5020836;28;20040;-71
2023/07/16 12:06:22;;;;;;;85.32;81.10;;;;;;;;;;5018496;28;20033;-72
2023/07/16 12:08:47;;;;;;;87.13;82.78;;;;;;;;;;5017054;28;20032;-72
2023/07/16 12:11:13;;;;;;;70.95;67.40;;;;;;;;;;5019527;28;20029;-72
2023/07/16 12:13:38;;;;;;;68.15;64.78;;;;;;;;;;5018541;28;20480;-73
2023/07/16 12:16:04;;;;;;;69.28;65.80;;;;;;;;;;5019239;28;20119;-72
2023/07/16 12:18:30;;;;;;;71.10;67.55;;;;;;;;;;5018157;28;20478;-72
2023/07/16 12:20:56;;;;;;;75.63;71.90;;;;;;;;;;5021456;28;20053;-69
2023/07/16 12:23:21;;;;;;;71.97;68.07;;;;;;;;;;5018290;28;20080;-69
2023/07/16 12:25:47;;;;;;;67.25;63.92;;;;;;;;;;5019488;28;20363;-70
2023/07/16 12:28:13;;;;;;;70.85;67.30;;;;;;;;;;5020127;28;20112;-69
2023/07/16 12:30:38;;;;;;;69.18;65.70;;;;;;;;;;5019375;28;20496;-69
2023/07/16 12:33:04;;;;;;;44.33;42.03;;;;;;;;;;5020692;28;20042;-73
2023/07/16 12:35:29;;;;;;;43.67;41.47;;;;;;;;;;5017347;28;20475;-75
2023/07/16 12:37:54;;;;;;;62.72;59.58;;;;;;;;;;5021001;28;20048;-73
2023/07/16 12:40:20;;;;;;;56.00;53.20;;;;;;;;;;5017226;28;20029;-70
2023/07/16 12:42:45;;;;;;;36.83;34.92;;;;;;;;;;5015986;28;20120;-71
2023/07/16 12:45:11;;;;;;;38.03;36.10;;;;;;;;;;5017613;28;20042;-73
2023/07/16 12:47:38;;;;;;;39.92;37.75;;;;;;;;;;5018628;28;20457;-70
2023/07/16 12:50:04;;;;;;;38.03;36.08;;;;;;;;;;5020078;28;20094;-72
2023/07/16 12:52:29;;;;;;;34.65;32.85;;;;;;;;;;5018750;28;20030;-70
2023/07/16 12:54:54;;;;;;;31.17;29.48;;;;;;;;;;5017722;28;20083;-71
2023/07/16 12:57:20;;;;;;;28.33;26.83;;;;;;;;;;5019185;28;20423;-71
2023/07/16 12:59:45;;;;;;;25.17;23.85;;;;;;;;;;5017749;28;20044;-74
2023/07/16 13:02:11;;;;;;;24.08;22.77;;;;;;;;;;5015441;28;20455;-72
2023/07/16 13:04:36;;;;;;;27.17;25.73;;;;;;;;;;5017257;28;20057;-70
2023/07/16 13:07:01;;;;;;;27.63;26.15;;;;;;;;;;5017037;28;20044;-71
2023/07/16 13:09:27;;;;;;;26.85;25.45;;;;;;;;;;5015867;28;20187;-72
2023/07/16 13:11:52;;;;;;;26.52;25.13;;;;;;;;;;5018510;28;20624;-73
2023/07/16 13:14:17;;;;;;;33.35;31.60;;;;;;;;;;5017757;28;20033;-73
2023/07/16 13:16:43;;;;;;;34.47;32.67;;;;;;;;;;5016498;28;20452;-72
2023/07/16 13:19:08;;;;;;;39.33;37.30;;;;;;;;;;5015100;28;20052;-72
2023/07/16 13:21:33;;;;;;;44.70;42.38;;;;;;;;;;5017107;28;20492;-70
2023/07/16 13:23:59;;;;;;;32.72;30.92;;;;;;;;;;5017539;28;20478;-69
2023/07/16 13:26:24;;;;;;;37.63;35.60;;;;;;;;;;5017202;28;20063;-69
2023/07/16 13:28:50;;;;;;;41.28;39.00;;;;;;;;;;5017881;28;20378;-76
2023/07/16 13:31:15;;;;;;;35.47;33.63;;;;;;;;;;5017664;28;20045;-75
2023/07/16 13:33:40;;;;;;;30.35;28.75;;;;;;;;;;5016980;28;20463;-76
2023/07/16 13:36:06;;;;;;;33.67;31.95;;;;;;;;;;5018998;28;20041;-77
2023/07/16 13:38:31;;;;;;;25.55;23.95;;;;;;;;;;5017352;28;20033;-77
2023/07/16 13:40:57;;;;;;;27.60;26.00;;;;;;;;;;5018444;28;20040;-76
2023/07/16 13:43:22;;;;;;;24.95;23.63;;;;;;;;;;5015453;28;20029;-76
2023/07/16 13:45:47;;;;;;;21.02;19.67;;;;;;;;;;5019998;28;20144;-72
2023/07/16 13:48:13;;;;;;;23.92;22.63;;;;;;;;;;5018315;28;20387;-69
2023/07/16 13:50:38;;;;;;;25.98;24.58;;;;;;;;;;5020374;28;20040;-69
2023/07/16 13:53:03;;;;;;;22.05;20.85;;;;;;;;;;5017546;28;20538;-76
2023/07/16 13:55:29;;;;;;;22.05;20.77;;;;;;;;;;5019506;28;20064;-78
2023/07/16 13:57:55;;;;;;;24.67;23.30;;;;;;;;;;5018175;28;20260;-77
2023/07/16 14:00:21;;;;;;;23.63;22.33;;;;;;;;;;5015661;28;20030;-77
2023/07/16 14:02:47;;;;;;;19.45;18.35;;;;;;;;;;5017039;28;20681;-75
2023/07/16 14:05:12;;;;;;;20.20;19.10;;;;;;;;;;5019190;28;20133;-78
2023/07/16 14:07:37;;;;;;;18.25;17.25;;;;;;;;;;5017202;28;20363;-71